VLSK

Details ICAO VLSK (ZVK)
Name SAVANNAKHET
Region Laos
Timezone Asia/Vientiane (UTC+7.0)
Plans Departing 3
Arriving 5
Stats Elevation 509 ft / 155 m (AMSL)
Location 16.556594° 104.759531°
Runways 1
Magnetic Variation 0.938° W
Sunrise 2017-12-11 23:21:17 UTC / 2017-12-12 06:21:17 Local
Sunset 2017-12-12 10:30:42 UTC / 2017-12-12 17:30:42 Local
Advertisement - Login to hide

Runways

ID Width Length Bearing (true) Bearing (mag) Surface Threshold Offset Overrun Length
04 125 ft / 38 m 5,371 ft / 1,637 m 39.17° 40.11° Concrete 0 ft / 0 m 825 ft / 251 m
22 125 ft / 38 m 5,371 ft / 1,637 m 219.17° 220.11° Concrete 0 ft / 0 m 657 ft / 200 m

Map

Weather


0- 5 10 15 20 25 30 35+ Temperature / ° C

Clouds and Precipitation
Forecast for 2017-12-12 00:00 UTC. Updated 2 hours ago

Ground ~20,000 ft ~40,000 ft Winds

METAR

Not found

TAF

TAF VLSK 111700Z 1118/1218 06004KT 7000 SCT020 SCT100 TEMPO 1118/1122 3000 BR FEW020 SCT100

Frequencies

Tower 118.50 MHz TWR
Warning: Do not use this data for real-world aviation or navigation. No guarantee of current accuracy is given.